Augusta, Georgia
Current Conditions -  °F | °C
As of 11:53 AM on Wednesday 26 Nov 2014 (Local Time) from KDNL Reporting Station
Broken Clouds Broken Clouds  
Wind Chill: 55°   Ceiling: 3100
Heat Index: 55°   Visibility: 10mi
Dew Point: 46°   Wind: 7mph
Humidity: 72%   Direction: 300°WNW
Pressure: 30.05"   Gusts: NA
Location:  33.48°N, 81.97°W
Report Text: KDNL 261653Z AUTO 30006KT 10SM FEW018 FEW025 BKN031 13/08 A3005 RMK AO2 SLP176 T01280078
Loading
Personal Weather Stations






























Interactive Weather Map New forecast layout! Learn more

10-Day Weather Forecast

Advertisements
Track Severe Weather on mobile